sensor_id;sensor_type;location;lat;lon;timestamp;temperature;humidity
33903;DHT22;20194;50.950;5.346;2022-09-03T00:00:09;22.30;99.90
33903;DHT22;20194;50.950;5.346;2022-09-03T00:02:41;22.40;99.90
33903;DHT22;20194;50.950;5.346;2022-09-03T00:08:18;22.20;99.90
33903;DHT22;20194;50.950;5.346;2022-09-03T00:10:54;22.10;99.90
33903;DHT22;20194;50.950;5.346;2022-09-03T00:13:32;22.00;99.90
33903;DHT22;20194;50.950;5.346;2022-09-03T00:15:59;22.00;99.90
33903;DHT22;20194;50.950;5.346;2022-09-03T00:18:30;22.00;99.90
33903;DHT22;20194;50.950;5.346;2022-09-03T00:21:05;22.00;99.90
33903;DHT22;20194;50.950;5.346;2022-09-03T00:23:36;21.90;99.90
33903;DHT22;20194;50.950;5.346;2022-09-03T00:31:57;21.80;99.90
33903;DHT22;20194;50.950;5.346;2022-09-03T00:34:30;21.60;99.90
33903;DHT22;20194;50.950;5.346;2022-09-03T00:36:57;21.50;99.90
33903;DHT22;20194;50.950;5.346;2022-09-03T00:39:24;21.40;99.90
33903;DHT22;20194;50.950;5.346;2022-09-03T00:42:16;21.50;99.90
33903;DHT22;20194;50.950;5.346;2022-09-03T00:53:40;21.50;99.90
33903;DHT22;20194;50.950;5.346;2022-09-03T00:58:57;21.40;99.90
33903;DHT22;20194;50.950;5.346;2022-09-03T01:04:39;21.20;99.90
33903;DHT22;20194;50.950;5.346;2022-09-03T01:27:02;21.20;99.90
33903;DHT22;20194;50.950;5.346;2022-09-03T01:29:43;21.20;99.90
33903;DHT22;20194;50.950;5.346;2022-09-03T01:32:21;21.20;99.90
33903;DHT22;20194;50.950;5.346;2022-09-03T01:40:17;21.30;99.90
33903;DHT22;20194;50.950;5.346;2022-09-03T01:59:29;21.30;99.90
33903;DHT22;20194;50.950;5.346;2022-09-03T02:02:02;21.20;99.90
33903;DHT22;20194;50.950;5.346;2022-09-03T02:04:31;21.30;99.90
33903;DHT22;20194;50.950;5.346;2022-09-03T02:06:59;21.20;99.90
33903;DHT22;20194;50.950;5.346;2022-09-03T02:09:25;21.20;99.90
33903;DHT22;20194;50.950;5.346;2022-09-03T02:12:05;21.20;99.90
33903;DHT22;20194;50.950;5.346;2022-09-03T02:14:33;21.30;99.90
33903;DHT22;20194;50.950;5.346;2022-09-03T02:17:01;21.20;99.90
33903;DHT22;20194;50.950;5.346;2022-09-03T02:19:27;21.10;99.90
33903;DHT22;20194;50.950;5.346;2022-09-03T02:21:55;21.20;99.90
33903;DHT22;20194;50.950;5.346;2022-09-03T02:24:22;20.90;99.90
33903;DHT22;20194;50.950;5.346;2022-09-03T02:26:48;21.00;99.90
33903;DHT22;20194;50.950;5.346;2022-09-03T02:29:15;20.90;99.90
33903;DHT22;20194;50.950;5.346;2022-09-03T02:31:42;20.90;99.90
33903;DHT22;20194;50.950;5.346;2022-09-03T02:34:08;20.90;99.90
33903;DHT22;20194;50.950;5.346;2022-09-03T02:36:37;20.80;99.90
33903;DHT22;20194;50.950;5.346;2022-09-03T02:39:04;20.70;99.90
33903;DHT22;20194;50.950;5.346;2022-09-03T02:41:30;20.60;99.90
33903;DHT22;20194;50.950;5.346;2022-09-03T02:44:28;20.30;99.90
33903;DHT22;20194;50.950;5.346;2022-09-03T02:47:05;20.50;99.90
33903;DHT22;20194;50.950;5.346;2022-09-03T02:49:31;20.70;99.90
33903;DHT22;20194;50.950;5.346;2022-09-03T02:52:08;20.80;99.90
33903;DHT22;20194;50.950;5.346;2022-09-03T02:54:37;20.90;99.90
33903;DHT22;20194;50.950;5.346;2022-09-03T02:57:07;21.00;99.90
33903;DHT22;20194;50.950;5.346;2022-09-03T02:59:33;21.00;99.90
33903;DHT22;20194;50.950;5.346;2022-09-03T03:01:59;20.90;99.90
33903;DHT22;20194;50.950;5.346;2022-09-03T03:04:25;20.90;99.90
33903;DHT22;20194;50.950;5.346;2022-09-03T03:06:51;21.00;99.90
33903;DHT22;20194;50.950;5.346;2022-09-03T03:09:17;21.00;99.90
33903;DHT22;20194;50.950;5.346;2022-09-03T03:11:42;20.90;99.90
33903;DHT22;20194;50.950;5.346;2022-09-03T03:14:08;21.00;99.90
33903;DHT22;20194;50.950;5.346;2022-09-03T03:16:35;20.90;99.90
33903;DHT22;20194;50.950;5.346;2022-09-03T03:19:01;20.70;99.90
33903;DHT22;20194;50.950;5.346;2022-09-03T03:21:27;20.50;99.90
33903;DHT22;20194;50.950;5.346;2022-09-03T03:23:53;20.40;99.90
33903;DHT22;20194;50.950;5.346;2022-09-03T03:26:19;20.40;99.90
33903;DHT22;20194;50.950;5.346;2022-09-03T03:28:47;20.40;99.90
33903;DHT22;20194;50.950;5.346;2022-09-03T03:31:18;20.40;99.90
33903;DHT22;20194;50.950;5.346;2022-09-03T03:33:50;20.50;99.90
33903;DHT22;20194;50.950;5.346;2022-09-03T03:36:16;20.60;99.90
33903;DHT22;20194;50.950;5.346;2022-09-03T03:38:43;20.60;99.90
33903;DHT22;20194;50.950;5.346;2022-09-03T03:41:17;20.70;99.90
33903;DHT22;20194;50.950;5.346;2022-09-03T03:43:43;20.70;99.90
33903;DHT22;20194;50.950;5.346;2022-09-03T03:46:09;20.70;99.90
33903;DHT22;20194;50.950;5.346;2022-09-03T03:48:36;20.70;99.90
33903;DHT22;20194;50.950;5.346;2022-09-03T03:51:04;20.60;99.90
33903;DHT22;20194;50.950;5.346;2022-09-03T03:53:31;20.60;99.90
33903;DHT22;20194;50.950;5.346;2022-09-03T03:56:00;20.50;99.90
33903;DHT22;20194;50.950;5.346;2022-09-03T03:58:27;20.50;99.90
33903;DHT22;20194;50.950;5.346;2022-09-03T04:00:53;20.50;99.90
33903;DHT22;20194;50.950;5.346;2022-09-03T04:03:19;20.50;99.90
33903;DHT22;20194;50.950;5.346;2022-09-03T04:05:55;20.50;99.90
33903;DHT22;20194;50.950;5.346;2022-09-03T04:08:21;20.50;99.90
33903;DHT22;20194;50.950;5.346;2022-09-03T04:10:47;20.60;99.90
33903;DHT22;20194;50.950;5.346;2022-09-03T04:13:13;20.50;99.90
33903;DHT22;20194;50.950;5.346;2022-09-03T04:15:39;20.50;99.90
33903;DHT22;20194;50.950;5.346;2022-09-03T04:18:05;20.50;99.90
33903;DHT22;20194;50.950;5.346;2022-09-03T04:20:31;20.40;99.90
33903;DHT22;20194;50.950;5.346;2022-09-03T04:23:00;20.50;99.90
33903;DHT22;20194;50.950;5.346;2022-09-03T04:25:25;20.50;99.90
33903;DHT22;20194;50.950;5.346;2022-09-03T04:27:51;20.40;99.90
33903;DHT22;20194;50.950;5.346;2022-09-03T04:30:17;20.30;99.90
33903;DHT22;20194;50.950;5.346;2022-09-03T04:32:43;20.30;99.90
33903;DHT22;20194;50.950;5.346;2022-09-03T04:35:19;20.10;99.90
33903;DHT22;20194;50.950;5.346;2022-09-03T04:37:45;20.20;99.90
33903;DHT22;20194;50.950;5.346;2022-09-03T04:40:11;20.30;99.90
33903;DHT22;20194;50.950;5.346;2022-09-03T04:42:37;20.30;99.90
33903;DHT22;20194;50.950;5.346;2022-09-03T04:45:03;20.20;99.90
33903;DHT22;20194;50.950;5.346;2022-09-03T04:47:28;19.90;99.90
33903;DHT22;20194;50.950;5.346;2022-09-03T04:49:54;19.90;99.90
33903;DHT22;20194;50.950;5.346;2022-09-03T04:52:20;20.00;99.90
33903;DHT22;20194;50.950;5.346;2022-09-03T04:54:45;20.10;99.90
33903;DHT22;20194;50.950;5.346;2022-09-03T04:57:11;20.20;99.90
33903;DHT22;20194;50.950;5.346;2022-09-03T04:59:38;20.30;99.90
33903;DHT22;20194;50.950;5.346;2022-09-03T05:02:05;20.10;99.90
33903;DHT22;20194;50.950;5.346;2022-09-03T05:04:31;20.10;99.90
33903;DHT22;20194;50.950;5.346;2022-09-03T05:06:57;20.10;96.10
33903;DHT22;20194;50.950;5.346;2022-09-03T05:09:22;20.00;98.70
33903;DHT22;20194;50.950;5.346;2022-09-03T05:11:48;20.10;3.90
33903;DHT22;20194;50.950;5.346;2022-09-03T05:14:13;20.20;54.20
33903;DHT22;20194;50.950;5.346;2022-09-03T05:16:40;20.20;99.90
33903;DHT22;20194;50.950;5.346;2022-09-03T05:19:05;20.30;99.90
33903;DHT22;20194;50.950;5.346;2022-09-03T05:21:33;20.20;91.80
33903;DHT22;20194;50.950;5.346;2022-09-03T05:24:00;20.40;62.80
33903;DHT22;20194;50.950;5.346;2022-09-03T05:26:29;19.90;1.00
33903;DHT22;20194;50.950;5.346;2022-09-03T05:28:58;19.50;1.00
33903;DHT22;20194;50.950;5.346;2022-09-03T05:31:25;19.60;10.50
33903;DHT22;20194;50.950;5.346;2022-09-03T05:33:55;19.70;11.70
33903;DHT22;20194;50.950;5.346;2022-09-03T05:36:24;19.80;1.00
33903;DHT22;20194;50.950;5.346;2022-09-03T05:38:51;19.80;1.00
33903;DHT22;20194;50.950;5.346;2022-09-03T05:41:21;20.00;1.00
33903;DHT22;20194;50.950;5.346;2022-09-03T05:43:51;20.00;1.00
33903;DHT22;20194;50.950;5.346;2022-09-03T05:46:21;20.00;1.00
33903;DHT22;20194;50.950;5.346;2022-09-03T05:48:52;19.70;1.00
33903;DHT22;20194;50.950;5.346;2022-09-03T05:51:17;19.80;1.00
33903;DHT22;20194;50.950;5.346;2022-09-03T05:53:46;19.80;1.00
33903;DHT22;20194;50.950;5.346;2022-09-03T05:56:14;19.90;1.00
33903;DHT22;20194;50.950;5.346;2022-09-03T05:58:46;20.10;1.00
33903;DHT22;20194;50.950;5.346;2022-09-03T06:01:18;20.10;1.00
33903;DHT22;20194;50.950;5.346;2022-09-03T06:03:46;20.00;1.00
33903;DHT22;20194;50.950;5.346;2022-09-03T06:06:12;19.80;59.30
33903;DHT22;20194;50.950;5.346;2022-09-03T06:08:38;19.90;99.90
33903;DHT22;20194;50.950;5.346;2022-09-03T06:11:05;20.00;20.50
33903;DHT22;20194;50.950;5.346;2022-09-03T06:13:32;20.00;2.20
33903;DHT22;20194;50.950;5.346;2022-09-03T06:16:00;20.10;1.00
33903;DHT22;20194;50.950;5.346;2022-09-03T06:18:26;20.10;60.00
33903;DHT22;20194;50.950;5.346;2022-09-03T06:20:59;19.70;99.90
33903;DHT22;20194;50.950;5.346;2022-09-03T06:23:26;19.70;99.90
33903;DHT22;20194;50.950;5.346;2022-09-03T06:26:19;19.50;99.90
33903;DHT22;20194;50.950;5.346;2022-09-03T06:28:45;19.50;99.90
33903;DHT22;20194;50.950;5.346;2022-09-03T06:31:14;19.40;77.00
33903;DHT22;20194;50.950;5.346;2022-09-03T06:33:41;19.50;59.30
33903;DHT22;20194;50.950;5.346;2022-09-03T06:36:09;19.70;93.80
33903;DHT22;20194;50.950;5.346;2022-09-03T06:38:36;19.90;45.30
33903;DHT22;20194;50.950;5.346;2022-09-03T06:41:07;19.90;11.10
33903;DHT22;20194;50.950;5.346;2022-09-03T06:43:35;20.00;1.00
33903;DHT22;20194;50.950;5.346;2022-09-03T06:46:10;20.00;94.50
33903;DHT22;20194;50.950;5.346;2022-09-03T06:48:37;20.00;93.50
33903;DHT22;20194;50.950;5.346;2022-09-03T06:51:09;20.10;1.00
33903;DHT22;20194;50.950;5.346;2022-09-03T06:53:37;20.20;2.20
33903;DHT22;20194;50.950;5.346;2022-09-03T06:56:05;20.30;62.50
33903;DHT22;20194;50.950;5.346;2022-09-03T06:58:34;20.20;11.90
33903;DHT22;20194;50.950;5.346;2022-09-03T07:01:04;20.40;1.00
33903;DHT22;20194;50.950;5.346;2022-09-03T07:03:34;20.60;1.00
33903;DHT22;20194;50.950;5.346;2022-09-03T07:06:01;20.80;1.00
33903;DHT22;20194;50.950;5.346;2022-09-03T07:08:28;21.00;1.00
33903;DHT22;20194;50.950;5.346;2022-09-03T07:10:54;21.10;1.00
33903;DHT22;20194;50.950;5.346;2022-09-03T07:13:20;21.10;1.00
33903;DHT22;20194;50.950;5.346;2022-09-03T07:15:46;21.20;1.00
33903;DHT22;20194;50.950;5.346;2022-09-03T07:18:12;21.20;1.00
33903;DHT22;20194;50.950;5.346;2022-09-03T07:20:38;21.20;1.00
33903;DHT22;20194;50.950;5.346;2022-09-03T07:23:04;21.70;1.00
33903;DHT22;20194;50.950;5.346;2022-09-03T07:25:29;22.00;1.00
33903;DHT22;20194;50.950;5.346;2022-09-03T07:27:55;22.30;1.00
33903;DHT22;20194;50.950;5.346;2022-09-03T07:30:22;22.40;1.00
33903;DHT22;20194;50.950;5.346;2022-09-03T07:32:50;22.40;1.00
33903;DHT22;20194;50.950;5.346;2022-09-03T07:35:16;22.60;1.00
33903;DHT22;20194;50.950;5.346;2022-09-03T07:37:43;22.90;1.00
33903;DHT22;20194;50.950;5.346;2022-09-03T07:40:10;22.90;1.00
33903;DHT22;20194;50.950;5.346;2022-09-03T07:42:36;22.90;1.00
33903;DHT22;20194;50.950;5.346;2022-09-03T07:45:06;22.90;1.00
33903;DHT22;20194;50.950;5.346;2022-09-03T07:47:35;22.90;1.00
33903;DHT22;20194;50.950;5.346;2022-09-03T07:50:02;23.00;1.00
33903;DHT22;20194;50.950;5.346;2022-09-03T07:52:28;23.30;1.00
33903;DHT22;20194;50.950;5.346;2022-09-03T07:54:55;23.30;1.00
33903;DHT22;20194;50.950;5.346;2022-09-03T07:57:21;23.60;1.00
33903;DHT22;20194;50.950;5.346;2022-09-03T07:59:46;23.80;1.00
33903;DHT22;20194;50.950;5.346;2022-09-03T08:02:12;24.10;1.00
33903;DHT22;20194;50.950;5.346;2022-09-03T08:04:38;24.00;1.00
33903;DHT22;20194;50.950;5.346;2022-09-03T08:07:05;23.80;1.00
33903;DHT22;20194;50.950;5.346;2022-09-03T08:09:31;24.20;1.00
33903;DHT22;20194;50.950;5.346;2022-09-03T08:11:57;24.40;1.00
33903;DHT22;20194;50.950;5.346;2022-09-03T08:14:23;24.30;1.00
33903;DHT22;20194;50.950;5.346;2022-09-03T08:16:49;23.80;1.00
33903;DHT22;20194;50.950;5.346;2022-09-03T08:19:16;23.70;99.90
33903;DHT22;20194;50.950;5.346;2022-09-03T08:21:42;23.70;99.90
33903;DHT22;20194;50.950;5.346;2022-09-03T08:24:10;23.70;99.90
33903;DHT22;20194;50.950;5.346;2022-09-03T08:26:37;23.70;99.90
33903;DHT22;20194;50.950;5.346;2022-09-03T08:29:05;23.70;99.90
33903;DHT22;20194;50.950;5.346;2022-09-03T08:31:32;23.80;99.90
33903;DHT22;20194;50.950;5.346;2022-09-03T08:34:00;23.70;74.80
33903;DHT22;20194;50.950;5.346;2022-09-03T08:36:36;23.80;99.90
33903;DHT22;20194;50.950;5.346;2022-09-03T08:39:04;23.70;99.90
33903;DHT22;20194;50.950;5.346;2022-09-03T08:49:47;23.10;99.90
33903;DHT22;20194;50.950;5.346;2022-09-03T08:52:24;23.40;99.90
33903;DHT22;20194;50.950;5.346;2022-09-03T08:54:53;23.60;99.90
33903;DHT22;20194;50.950;5.346;2022-09-03T08:57:20;23.80;99.90
33903;DHT22;20194;50.950;5.346;2022-09-03T08:59:48;23.80;99.90
33903;DHT22;20194;50.950;5.346;2022-09-03T09:02:43;23.80;99.90
33903;DHT22;20194;50.950;5.346;2022-09-03T09:05:40;23.80;99.90
33903;DHT22;20194;50.950;5.346;2022-09-03T09:08:14;24.00;99.90
33903;DHT22;20194;50.950;5.346;2022-09-03T09:10:46;23.90;99.90
33903;DHT22;20194;50.950;5.346;2022-09-03T09:13:27;24.10;99.90
33903;DHT22;20194;50.950;5.346;2022-09-03T09:19:17;24.60;99.90
33903;DHT22;20194;50.950;5.346;2022-09-03T09:21:52;24.30;99.90
33903;DHT22;20194;50.950;5.346;2022-09-03T09:24:25;24.70;99.90
33903;DHT22;20194;50.950;5.346;2022-09-03T09:27:03;25.20;82.90
33903;DHT22;20194;50.950;5.346;2022-09-03T09:29:37;25.60;95.60
33903;DHT22;20194;50.950;5.346;2022-09-03T09:32:06;25.80;74.90
33903;DHT22;20194;50.950;5.346;2022-09-03T09:34:37;26.20;77.10
33903;DHT22;20194;50.950;5.346;2022-09-03T09:37:10;26.40;67.30
33903;DHT22;20194;50.950;5.346;2022-09-03T09:39:38;26.40;23.90
33903;DHT22;20194;50.950;5.346;2022-09-03T09:44:35;26.70;99.90
33903;DHT22;20194;50.950;5.346;2022-09-03T09:47:03;26.40;78.50
33903;DHT22;20194;50.950;5.346;2022-09-03T09:49:33;26.00;94.30
33903;DHT22;20194;50.950;5.346;2022-09-03T09:52:02;25.90;83.10
33903;DHT22;20194;50.950;5.346;2022-09-03T09:54:29;25.70;99.90
33903;DHT22;20194;50.950;5.346;2022-09-03T09:57:03;25.80;99.90
33903;DHT22;20194;50.950;5.346;2022-09-03T09:59:30;25.70;98.40
33903;DHT22;20194;50.950;5.346;2022-09-03T10:02:10;25.90;99.90
33903;DHT22;20194;50.950;5.346;2022-09-03T10:04:36;26.00;99.90
33903;DHT22;20194;50.950;5.346;2022-09-03T10:07:26;26.00;99.90
33903;DHT22;20194;50.950;5.346;2022-09-03T10:10:04;25.80;99.90
33903;DHT22;20194;50.950;5.346;2022-09-03T10:12:31;25.80;99.90
33903;DHT22;20194;50.950;5.346;2022-09-03T10:28:16;25.40;99.90
33903;DHT22;20194;50.950;5.346;2022-09-03T10:33:54;25.20;99.90
33903;DHT22;20194;50.950;5.346;2022-09-03T10:36:24;25.20;99.90
33903;DHT22;20194;50.950;5.346;2022-09-03T10:39:03;25.10;1.00
33903;DHT22;20194;50.950;5.346;2022-09-03T10:56:00;25.50;1.00
33903;DHT22;20194;50.950;5.346;2022-09-03T11:03:52;26.40;99.90
33903;DHT22;20194;50.950;5.346;2022-09-03T11:06:28;26.40;48.80
33903;DHT22;20194;50.950;5.346;2022-09-03T11:09:30;26.30;99.90
33903;DHT22;20194;50.950;5.346;2022-09-03T11:12:02;26.60;82.90
33903;DHT22;20194;50.950;5.346;2022-09-03T11:17:05;26.30;99.90
33903;DHT22;20194;50.950;5.346;2022-09-03T11:19:41;26.50;99.90
33903;DHT22;20194;50.950;5.346;2022-09-03T11:22:13;26.70;45.40
33903;DHT22;20194;50.950;5.346;2022-09-03T11:24:45;26.60;96.80
33903;DHT22;20194;50.950;5.346;2022-09-03T11:40:19;27.80;59.80
33903;DHT22;20194;50.950;5.346;2022-09-03T11:42:46;28.00;1.00
33903;DHT22;20194;50.950;5.346;2022-09-03T11:47:44;27.90;1.00
33903;DHT22;20194;50.950;5.346;2022-09-03T11:50:29;27.60;1.00
33903;DHT22;20194;50.950;5.346;2022-09-03T11:53:24;27.60;1.00
33903;DHT22;20194;50.950;5.346;2022-09-03T11:56:00;27.60;1.00
33903;DHT22;20194;50.950;5.346;2022-09-03T11:58:35;27.90;1.00
33903;DHT22;20194;50.950;5.346;2022-09-03T12:01:07;27.90;1.00
33903;DHT22;20194;50.950;5.346;2022-09-03T12:03:45;27.40;1.00
33903;DHT22;20194;50.950;5.346;2022-09-03T12:17:57;27.60;1.00
33903;DHT22;20194;50.950;5.346;2022-09-03T12:20:11;27.80;3.80
33903;DHT22;20194;50.950;5.346;2022-09-03T12:22:37;27.70;1.00
33903;DHT22;20194;50.950;5.346;2022-09-03T12:25:22;27.50;99.90
33903;DHT22;20194;50.950;5.346;2022-09-03T12:27:47;27.60;83.00
33903;DHT22;20194;50.950;5.346;2022-09-03T12:30:21;27.50;49.90
33903;DHT22;20194;50.950;5.346;2022-09-03T12:32:47;27.30;99.90
33903;DHT22;20194;50.950;5.346;2022-09-03T12:35:23;27.20;81.00
33903;DHT22;20194;50.950;5.346;2022-09-03T12:37:51;27.50;85.00
33903;DHT22;20194;50.950;5.346;2022-09-03T12:40:18;27.30;99.90
33903;DHT22;20194;50.950;5.346;2022-09-03T12:42:46;27.30;92.80
33903;DHT22;20194;50.950;5.346;2022-09-03T12:45:12;27.60;80.20
33903;DHT22;20194;50.950;5.346;2022-09-03T12:47:41;28.00;88.00
33903;DHT22;20194;50.950;5.346;2022-09-03T12:50:16;28.20;76.00
33903;DHT22;20194;50.950;5.346;2022-09-03T13:00:20;27.70;99.90
33903;DHT22;20194;50.950;5.346;2022-09-03T13:05:43;27.50;60.80
33903;DHT22;20194;50.950;5.346;2022-09-03T13:08:17;27.40;99.90
33903;DHT22;20194;50.950;5.346;2022-09-03T13:10:44;27.50;99.90
33903;DHT22;20194;50.950;5.346;2022-09-03T13:13:26;27.50;99.90
33903;DHT22;20194;50.950;5.346;2022-09-03T13:21:14;27.80;1.00
33903;DHT22;20194;50.950;5.346;2022-09-03T13:23:54;28.00;1.00
33903;DHT22;20194;50.950;5.346;2022-09-03T13:26:31;28.30;1.00
33903;DHT22;20194;50.950;5.346;2022-09-03T13:32:32;28.50;1.00
33903;DHT22;20194;50.950;5.346;2022-09-03T13:35:09;28.50;37.50
33903;DHT22;20194;50.950;5.346;2022-09-03T13:37:59;28.40;1.00
33903;DHT22;20194;50.950;5.346;2022-09-03T13:43:39;28.50;1.00
33903;DHT22;20194;50.950;5.346;2022-09-03T13:46:22;28.60;1.00
33903;DHT22;20194;50.950;5.346;2022-09-03T13:49:04;28.60;1.00
33903;DHT22;20194;50.950;5.346;2022-09-03T13:51:56;28.60;1.00
33903;DHT22;20194;50.950;5.346;2022-09-03T13:54:30;28.70;1.00
33903;DHT22;20194;50.950;5.346;2022-09-03T13:59:33;28.80;1.00
33903;DHT22;20194;50.950;5.346;2022-09-03T14:02:10;28.50;1.00
33903;DHT22;20194;50.950;5.346;2022-09-03T14:16:04;26.90;1.00
33903;DHT22;20194;50.950;5.346;2022-09-03T14:21:16;26.70;1.00
33903;DHT22;20194;50.950;5.346;2022-09-03T14:24:09;26.70;1.00
33903;DHT22;20194;50.950;5.346;2022-09-03T14:26:47;26.80;46.70
33903;DHT22;20194;50.950;5.346;2022-09-03T14:29:14;26.90;11.90
33903;DHT22;20194;50.950;5.346;2022-09-03T14:37:42;26.70;23.90
33903;DHT22;20194;50.950;5.346;2022-09-03T14:40:17;26.80;45.50
33903;DHT22;20194;50.950;5.346;2022-09-03T14:56:50;26.60;69.80
33903;DHT22;20194;50.950;5.346;2022-09-03T15:08:08;26.50;17.40
33903;DHT22;20194;50.950;5.346;2022-09-03T15:11:23;26.50;19.20
33903;DHT22;20194;50.950;5.346;2022-09-03T15:16:47;26.30;99.90
33903;DHT22;20194;50.950;5.346;2022-09-03T15:22:18;26.20;91.90
33903;DHT22;20194;50.950;5.346;2022-09-03T15:30:09;26.30;99.90
33903;DHT22;20194;50.950;5.346;2022-09-03T15:38:11;26.20;99.90
33903;DHT22;20194;50.950;5.346;2022-09-03T15:48:29;25.80;99.90
33903;DHT22;20194;50.950;5.346;2022-09-03T15:51:15;25.80;99.90
33903;DHT22;20194;50.950;5.346;2022-09-03T15:53:52;25.90;99.90
33903;DHT22;20194;50.950;5.346;2022-09-03T15:57:01;26.00;99.90
33903;DHT22;20194;50.950;5.346;2022-09-03T16:02:17;26.00;99.90
33903;DHT22;20194;50.950;5.346;2022-09-03T16:07:28;25.90;99.90
33903;DHT22;20194;50.950;5.346;2022-09-03T16:15:23;25.90;99.90
33903;DHT22;20194;50.950;5.346;2022-09-03T16:18:16;26.30;99.90
33903;DHT22;20194;50.950;5.346;2022-09-03T16:23:25;26.30;99.90
33903;DHT22;20194;50.950;5.346;2022-09-03T16:26:11;26.40;99.90
33903;DHT22;20194;50.950;5.346;2022-09-03T16:28:47;26.30;99.90
33903;DHT22;20194;50.950;5.346;2022-09-03T16:31:38;26.30;99.90
33903;DHT22;20194;50.950;5.346;2022-09-03T16:48:14;26.40;99.90
33903;DHT22;20194;50.950;5.346;2022-09-03T16:53:30;26.50;99.90
33903;DHT22;20194;50.950;5.346;2022-09-03T17:09:46;26.40;99.90
33903;DHT22;20194;50.950;5.346;2022-09-03T17:12:33;26.40;99.90
33903;DHT22;20194;50.950;5.346;2022-09-03T17:18:08;26.70;1.00
33903;DHT22;20194;50.950;5.346;2022-09-03T17:20:47;26.80;1.00
33903;DHT22;20194;50.950;5.346;2022-09-03T17:23:26;26.80;1.00
33903;DHT22;20194;50.950;5.346;2022-09-03T17:29:02;26.60;1.00
33903;DHT22;20194;50.950;5.346;2022-09-03T17:34:31;26.40;99.90
33903;DHT22;20194;50.950;5.346;2022-09-03T17:42:59;26.40;1.00
33903;DHT22;20194;50.950;5.346;2022-09-03T17:45:52;26.40;99.90
33903;DHT22;20194;50.950;5.346;2022-09-03T17:48:52;26.40;1.00
33903;DHT22;20194;50.950;5.346;2022-09-03T17:56:27;26.20;1.00
33903;DHT22;20194;50.950;5.346;2022-09-03T18:02:11;26.20;1.00
33903;DHT22;20194;50.950;5.346;2022-09-03T18:04:50;26.20;1.00
33903;DHT22;20194;50.950;5.346;2022-09-03T18:15:27;26.10;32.00
33903;DHT22;20194;50.950;5.346;2022-09-03T18:17:57;26.10;1.00
33903;DHT22;20194;50.950;5.346;2022-09-03T18:20:25;26.10;1.00
33903;DHT22;20194;50.950;5.346;2022-09-03T18:23:18;25.80;1.00
33903;DHT22;20194;50.950;5.346;2022-09-03T18:26:10;25.60;99.90
33903;DHT22;20194;50.950;5.346;2022-09-03T18:29:05;25.50;26.40
33903;DHT22;20194;50.950;5.346;2022-09-03T18:31:50;25.40;1.00
33903;DHT22;20194;50.950;5.346;2022-09-03T18:34:36;25.50;1.00
33903;DHT22;20194;50.950;5.346;2022-09-03T18:37:23;25.30;1.00
33903;DHT22;20194;50.950;5.346;2022-09-03T18:40:10;25.40;1.00
33903;DHT22;20194;50.950;5.346;2022-09-03T18:45:56;25.30;1.00
33903;DHT22;20194;50.950;5.346;2022-09-03T18:52:53;25.20;98.90
33903;DHT22;20194;50.950;5.346;2022-09-03T18:55:30;25.30;90.00
33903;DHT22;20194;50.950;5.346;2022-09-03T19:01:47;25.10;99.90
33903;DHT22;20194;50.950;5.346;2022-09-03T19:10:50;25.70;40.80
33903;DHT22;20194;50.950;5.346;2022-09-03T19:13:39;25.80;59.90
33903;DHT22;20194;50.950;5.346;2022-09-03T19:19:26;25.80;83.00
33903;DHT22;20194;50.950;5.346;2022-09-03T19:25:13;25.70;81.30
33903;DHT22;20194;50.950;5.346;2022-09-03T19:28:23;25.50;98.30
33903;DHT22;20194;50.950;5.346;2022-09-03T19:31:35;25.60;86.20
33903;DHT22;20194;50.950;5.346;2022-09-03T19:46:40;25.60;93.70
33903;DHT22;20194;50.950;5.346;2022-09-03T19:49:39;25.40;99.90
33903;DHT22;20194;50.950;5.346;2022-09-03T19:52:42;25.40;97.20
33903;DHT22;20194;50.950;5.346;2022-09-03T19:55:32;25.40;99.90
33903;DHT22;20194;50.950;5.346;2022-09-03T19:58:20;25.30;99.90
33903;DHT22;20194;50.950;5.346;2022-09-03T20:01:06;25.40;99.90
33903;DHT22;20194;50.950;5.346;2022-09-03T20:03:51;25.40;99.90
33903;DHT22;20194;50.950;5.346;2022-09-03T20:06:37;25.40;90.60
33903;DHT22;20194;50.950;5.346;2022-09-03T20:09:27;25.40;99.90
33903;DHT22;20194;50.950;5.346;2022-09-03T20:12:12;25.40;99.90
33903;DHT22;20194;50.950;5.346;2022-09-03T20:14:41;25.40;99.90
33903;DHT22;20194;50.950;5.346;2022-09-03T20:20:20;25.40;99.90
33903;DHT22;20194;50.950;5.346;2022-09-03T20:23:11;25.30;99.90
33903;DHT22;20194;50.950;5.346;2022-09-03T20:31:36;24.90;99.90
33903;DHT22;20194;50.950;5.346;2022-09-03T20:45:03;24.00;99.90
33903;DHT22;20194;50.950;5.346;2022-09-03T20:48:20;24.10;99.90
33903;DHT22;20194;50.950;5.346;2022-09-03T20:57:26;23.50;1.00
33903;DHT22;20194;50.950;5.346;2022-09-03T21:00:09;23.70;1.00
33903;DHT22;20194;50.950;5.346;2022-09-03T21:05:44;24.10;99.90
33903;DHT22;20194;50.950;5.346;2022-09-03T21:11:01;24.00;99.90
33903;DHT22;20194;50.950;5.346;2022-09-03T21:13:45;24.00;1.00
33903;DHT22;20194;50.950;5.346;2022-09-03T21:16:20;23.70;1.00
33903;DHT22;20194;50.950;5.346;2022-09-03T21:19:17;23.30;1.00
33903;DHT22;20194;50.950;5.346;2022-09-03T21:24:55;22.80;1.00
33903;DHT22;20194;50.950;5.346;2022-09-03T21:27:27;22.70;1.00
33903;DHT22;20194;50.950;5.346;2022-09-03T21:30:01;22.80;1.00
33903;DHT22;20194;50.950;5.346;2022-09-03T21:32:53;22.40;1.00
33903;DHT22;20194;50.950;5.346;2022-09-03T21:35:31;22.30;1.00
33903;DHT22;20194;50.950;5.346;2022-09-03T21:38:07;22.00;1.00
33903;DHT22;20194;50.950;5.346;2022-09-03T21:40:36;22.20;1.00
33903;DHT22;20194;50.950;5.346;2022-09-03T21:46:05;22.10;1.00
33903;DHT22;20194;50.950;5.346;2022-09-03T21:48:36;22.10;1.00
33903;DHT22;20194;50.950;5.346;2022-09-03T21:52:06;22.30;1.00
33903;DHT22;20194;50.950;5.346;2022-09-03T21:54:29;22.40;1.00
33903;DHT22;20194;50.950;5.346;2022-09-03T22:02:25;21.90;1.00
33903;DHT22;20194;50.950;5.346;2022-09-03T22:04:52;21.80;1.00
33903;DHT22;20194;50.950;5.346;2022-09-03T22:15:28;22.10;1.00
33903;DHT22;20194;50.950;5.346;2022-09-03T22:18:00;22.30;1.00
33903;DHT22;20194;50.950;5.346;2022-09-03T22:20:29;22.50;1.00
33903;DHT22;20194;50.950;5.346;2022-09-03T22:23:15;22.40;1.00
33903;DHT22;20194;50.950;5.346;2022-09-03T22:25:57;22.40;1.00
33903;DHT22;20194;50.950;5.346;2022-09-03T22:28:29;22.50;1.00
33903;DHT22;20194;50.950;5.346;2022-09-03T22:31:09;22.50;1.00
33903;DHT22;20194;50.950;5.346;2022-09-03T22:33:43;22.20;1.00
33903;DHT22;20194;50.950;5.346;2022-09-03T22:36:20;22.10;1.00
33903;DHT22;20194;50.950;5.346;2022-09-03T22:39:11;22.40;1.00
33903;DHT22;20194;50.950;5.346;2022-09-03T22:42:00;22.50;1.00
33903;DHT22;20194;50.950;5.346;2022-09-03T22:44:45;22.40;1.00
33903;DHT22;20194;50.950;5.346;2022-09-03T22:47:34;22.50;1.00
33903;DHT22;20194;50.950;5.346;2022-09-03T22:52:58;22.70;1.00
33903;DHT22;20194;50.950;5.346;2022-09-03T22:55:27;22.80;1.00